createdAt,value
2024-05-09T00:03:21.406Z,50.05
2024-05-09T00:08:19.886Z,50.47
2024-05-09T00:13:20.163Z,49.36
2024-05-09T00:18:19.228Z,48.91
2024-05-09T00:23:18.417Z,49.02
2024-05-09T00:28:17.493Z,49.11
2024-05-09T00:33:16.873Z,49.20
2024-05-09T00:38:15.950Z,48.77
2024-05-09T00:43:15.552Z,48.18
2024-05-09T00:48:20.724Z,48.36
2024-05-09T00:53:21.827Z,48.10
2024-05-09T00:58:24.245Z,48.17
2024-05-09T01:03:23.471Z,50.21
2024-05-09T01:08:23.095Z,49.28
2024-05-09T01:13:21.994Z,49.44
2024-05-09T01:18:21.936Z,49.20
2024-05-09T01:23:21.118Z,49.21
2024-05-09T01:28:19.975Z,52.17
2024-05-09T01:33:19.154Z,56.60
2024-05-09T01:38:20.279Z,56.68
2024-05-09T01:43:19.151Z,57.19
2024-05-09T01:48:18.209Z,56.45
2024-05-09T01:53:18.166Z,56.59
2024-05-09T01:58:17.529Z,57.57
2024-05-09T02:03:18.229Z,58.77
2024-05-09T02:08:21.555Z,60.64
2024-05-09T02:13:21.203Z,61.29
2024-05-09T02:18:20.643Z,62.15
2024-05-09T02:23:19.985Z,62.65
2024-05-09T02:28:21.652Z,61.82
2024-05-09T02:33:21.097Z,59.87
2024-05-09T02:38:22.564Z,59.74
2024-05-09T02:43:21.147Z,59.36
2024-05-09T02:48:20.467Z,62.91
2024-05-09T02:53:20.441Z,64.70
2024-05-09T02:58:19.889Z,64.90
2024-05-09T03:03:18.966Z,64.41
2024-05-09T03:08:19.214Z,65.80
2024-05-09T03:13:18.898Z,65.95
2024-05-09T03:18:18.294Z,65.34
2024-05-09T03:23:17.231Z,62.58
2024-05-09T03:28:16.424Z,60.94
2024-05-09T03:33:19.132Z,64.88
2024-05-09T03:38:18.859Z,63.88
2024-05-09T03:43:19.811Z,60.80
2024-05-09T03:48:20.258Z,59.92
2024-05-09T03:53:19.658Z,62.09
2024-05-09T03:58:19.224Z,62.94
2024-05-09T04:03:20.341Z,63.86
2024-05-09T04:08:23.139Z,64.83
2024-05-09T04:13:21.982Z,64.47
2024-05-09T04:18:23.144Z,63.21
2024-05-09T04:23:21.658Z,60.79
2024-05-09T04:28:23.916Z,64.33
2024-05-09T04:33:24.830Z,64.68
2024-05-09T04:38:24.033Z,64.37
2024-05-09T04:43:23.146Z,62.28
2024-05-09T04:48:22.314Z,61.99
2024-05-09T04:53:21.546Z,61.83
2024-05-09T04:58:20.156Z,61.50
2024-05-09T05:03:19.191Z,60.42
2024-05-09T05:08:20.106Z,60.10
2024-05-09T05:13:21.473Z,60.15
2024-05-09T05:18:22.868Z,59.85
2024-05-09T05:23:24.476Z,59.79
2024-05-09T05:28:25.605Z,59.27
2024-05-09T05:33:24.711Z,59.46
2024-05-09T05:38:27.276Z,59.44
2024-05-09T05:43:26.627Z,59.51
2024-05-09T05:48:25.645Z,58.96
2024-05-09T05:53:24.836Z,58.71
2024-05-09T05:58:23.498Z,58.82
2024-05-09T06:03:22.981Z,57.95
2024-05-09T06:08:21.909Z,57.62
2024-05-09T06:13:20.824Z,57.36
2024-05-09T06:18:20.634Z,56.89
2024-05-09T06:23:19.545Z,56.36
2024-05-09T06:28:18.261Z,54.55
2024-05-09T06:33:17.571Z,54.50
2024-05-09T06:38:16.970Z,53.42
2024-05-09T06:43:19.392Z,53.29
2024-05-09T06:48:21.587Z,52.33
2024-05-09T06:53:24.123Z,52.31
2024-05-09T06:58:23.906Z,51.40
2024-05-09T07:03:22.792Z,51.70
2024-05-09T07:08:22.867Z,51.70
2024-05-09T07:13:21.678Z,51.42
2024-05-09T07:18:21.148Z,51.03
2024-05-09T07:23:20.304Z,50.35
2024-05-09T07:28:21.930Z,49.85
2024-05-09T07:33:24.981Z,49.10
2024-05-09T07:38:24.054Z,46.07
2024-05-09T07:43:22.287Z,45.85
2024-05-09T07:53:39.837Z,43.74
2024-05-09T07:58:46.579Z,41.11
2024-05-09T08:03:45.971Z,41.06
2024-05-09T08:08:46.776Z,41.95
2024-05-09T08:13:45.757Z,42.04
2024-05-09T08:18:43.979Z,42.27
2024-05-09T08:23:42.655Z,41.62
2024-05-09T08:28:42.633Z,41.76
2024-05-09T08:33:47.956Z,40.73
2024-05-09T08:38:47.294Z,40.12
2024-05-09T08:43:47.363Z,40.67
2024-05-09T08:48:49.294Z,40.78
2024-05-09T08:53:48.524Z,39.35
2024-05-09T08:58:50.124Z,38.24
2024-05-09T09:03:50.508Z,38.84
2024-05-09T09:08:50.366Z,38.90
2024-05-09T09:13:49.631Z,38.29
2024-05-09T09:18:51.214Z,37.83
2024-05-09T09:23:50.517Z,36.94
2024-05-09T09:28:49.877Z,38.21
2024-05-09T09:33:49.027Z,39.00
2024-05-09T09:38:48.761Z,38.27
2024-05-09T09:43:47.862Z,37.26
2024-05-09T09:48:49.126Z,34.75
2024-05-09T09:53:50.386Z,34.26
2024-05-09T09:58:51.694Z,34.72
2024-05-09T10:03:50.647Z,34.46
2024-05-09T10:08:52.267Z,34.84
2024-05-09T10:13:55.107Z,34.97
2024-05-09T10:18:56.807Z,34.04
2024-05-09T10:24:07.144Z,33.70
2024-05-09T10:29:17.092Z,33.58
2024-05-09T10:34:23.821Z,30.41
2024-05-09T10:39:26.172Z,31.93
2024-05-09T10:44:25.724Z,31.90
2024-05-09T10:49:25.923Z,31.62
2024-05-09T10:59:56.214Z,32.41
2024-05-09T11:04:56.051Z,31.24
2024-05-09T11:09:56.330Z,30.09
2024-05-09T11:14:58.777Z,30.69
2024-05-09T11:19:57.148Z,29.70
2024-05-09T11:24:56.957Z,29.99
2024-05-09T11:29:57.751Z,30.95
2024-05-09T11:34:56.734Z,30.71
2024-05-09T11:39:55.760Z,30.04
2024-05-09T11:44:54.595Z,29.95
2024-05-09T11:49:54.158Z,31.41
2024-05-09T11:54:53.236Z,30.60
2024-05-09T11:59:52.053Z,30.94
2024-05-09T12:04:50.859Z,30.32
2024-05-09T12:09:50.013Z,28.56
2024-05-09T12:14:49.138Z,28.63
2024-05-09T12:19:48.449Z,27.94
2024-05-09T12:24:47.639Z,27.32
2024-05-09T12:29:46.804Z,25.94
2024-05-09T12:34:46.318Z,27.15
2024-05-09T12:39:44.910Z,26.38
2024-05-09T12:44:48.966Z,26.32
2024-05-09T12:49:48.071Z,25.52
2024-05-09T12:54:46.548Z,23.54
2024-05-09T12:59:48.365Z,23.68
2024-05-09T13:04:47.216Z,24.63
2024-05-09T13:09:46.893Z,24.30
2024-05-09T13:14:45.676Z,25.06
2024-05-09T13:19:44.965Z,25.48
2024-05-09T13:24:45.037Z,24.54
2024-05-09T13:29:44.530Z,25.18
2024-05-09T13:34:43.642Z,25.75
2024-05-09T13:39:42.972Z,26.14
2024-05-09T13:44:41.976Z,25.28
2024-05-09T13:49:41.225Z,23.85
2024-05-09T13:54:39.455Z,23.90
2024-05-09T13:59:37.810Z,24.06
2024-05-09T14:04:36.641Z,23.49
2024-05-09T14:09:37.361Z,23.08
2024-05-09T14:14:37.022Z,23.48
2024-05-09T14:19:36.071Z,23.71
2024-05-09T14:24:35.127Z,22.73
2024-05-09T14:29:35.468Z,23.01
2024-05-09T14:34:35.169Z,21.73
2024-05-09T14:39:33.952Z,21.27
2024-05-09T14:44:32.751Z,21.34
2024-05-09T14:49:32.121Z,21.32
2024-05-09T14:54:31.240Z,21.63
2024-05-09T14:59:30.277Z,21.59
2024-05-09T15:04:30.002Z,22.23
2024-05-09T15:09:28.448Z,21.75
2024-05-09T15:14:27.606Z,20.78
2024-05-09T15:19:27.270Z,21.39
2024-05-09T15:24:28.972Z,21.89
2024-05-09T15:29:29.592Z,21.57
2024-05-09T15:34:30.058Z,21.35
2024-05-09T15:39:30.459Z,21.99
2024-05-09T15:44:30.266Z,21.31
2024-05-09T15:49:29.630Z,18.87
2024-05-09T15:55:19.304Z,17.53
2024-05-09T16:00:28.474Z,17.52
2024-05-09T16:05:33.558Z,15.21
2024-05-09T16:10:34.324Z,14.98
2024-05-09T16:15:33.933Z,15.58
2024-05-09T16:20:39.044Z,15.56
2024-05-09T16:25:42.186Z,14.34
2024-05-09T16:30:41.563Z,15.68
2024-05-09T16:35:41.142Z,13.95
2024-05-09T16:40:41.712Z,13.45
2024-05-09T16:45:43.725Z,13.99
2024-05-09T16:50:43.005Z,14.50
2024-05-09T16:55:42.080Z,15.62
2024-05-09T17:00:43.700Z,14.48
2024-05-09T17:05:46.198Z,13.73
2024-05-09T17:10:49.202Z,14.20
2024-05-09T17:15:50.035Z,14.73
2024-05-09T17:20:52.170Z,14.96
2024-05-09T17:25:51.721Z,15.27
2024-05-09T17:30:50.970Z,15.38
2024-05-09T17:35:52.597Z,15.95
2024-05-09T17:40:53.257Z,17.46
2024-05-09T17:45:52.993Z,18.89
2024-05-09T17:50:53.576Z,20.56
2024-05-09T17:55:56.410Z,22.10
2024-05-09T18:00:55.653Z,24.14
2024-05-09T18:05:55.895Z,25.08
2024-05-09T18:10:55.731Z,27.07
2024-05-09T18:15:54.883Z,27.21
2024-05-09T18:20:56.227Z,28.59
2024-05-09T18:25:56.460Z,30.59
2024-05-09T18:30:55.539Z,31.29
2024-05-09T18:35:54.391Z,33.01
2024-05-09T18:40:53.258Z,33.42
2024-05-09T18:45:52.438Z,34.33
2024-05-09T18:50:52.162Z,34.27
2024-05-09T18:55:53.187Z,33.37
2024-05-09T19:00:54.972Z,34.27
2024-05-09T19:05:54.937Z,37.77
2024-05-09T19:10:54.287Z,37.86
2024-05-09T19:15:53.274Z,38.91
2024-05-09T19:20:52.546Z,40.60
2024-05-09T19:25:51.783Z,41.48
2024-05-09T19:30:50.808Z,42.32
2024-05-09T19:35:49.538Z,43.28
2024-05-09T19:40:49.700Z,43.47
2024-05-09T19:45:49.655Z,43.62
2024-05-09T19:50:52.290Z,42.98
2024-05-09T19:55:55.636Z,43.44
2024-05-09T20:00:55.189Z,44.14
2024-05-09T20:05:53.686Z,44.86
2024-05-09T20:10:52.758Z,45.62
2024-05-09T20:15:52.770Z,46.11
2024-05-09T20:20:53.918Z,46.69
2024-05-09T20:25:53.717Z,47.04
2024-05-09T20:30:54.966Z,47.25
2024-05-09T20:35:57.978Z,47.55
2024-05-09T20:40:57.502Z,48.13
2024-05-09T20:46:00.657Z,48.50
2024-05-09T20:51:08.472Z,48.62
2024-05-09T20:56:08.979Z,48.73
2024-05-09T21:01:08.584Z,49.18
2024-05-09T21:06:08.758Z,49.43
2024-05-09T21:11:07.954Z,50.15
2024-05-09T21:16:07.727Z,52.23
2024-05-09T21:21:07.045Z,51.11
2024-05-09T21:26:07.107Z,50.96
2024-05-09T21:31:06.311Z,50.93
2024-05-09T21:36:06.514Z,50.97
2024-05-09T21:41:06.011Z,51.18
2024-05-09T21:46:05.377Z,51.35
2024-05-09T21:51:05.898Z,51.77
2024-05-09T21:56:05.916Z,51.82
2024-05-09T22:01:06.079Z,51.90
2024-05-09T22:06:05.202Z,51.64
2024-05-09T22:11:03.609Z,52.43
2024-05-09T22:16:03.795Z,52.89
2024-05-09T22:21:02.284Z,53.08
2024-05-09T22:26:01.571Z,53.58
2024-05-09T22:31:00.601Z,53.57
2024-05-09T22:35:59.789Z,53.34
2024-05-09T22:40:58.601Z,53.99
2024-05-09T22:45:58.186Z,54.34
2024-05-09T22:50:56.929Z,54.65
2024-05-09T22:55:56.206Z,54.95
2024-05-09T23:00:55.455Z,55.38
2024-05-09T23:05:54.741Z,55.36
2024-05-09T23:10:54.201Z,56.02
2024-05-09T23:15:53.166Z,56.26
2024-05-09T23:20:52.639Z,56.89
2024-05-09T23:25:52.721Z,57.16
2024-05-09T23:30:50.958Z,57.41
2024-05-09T23:35:50.018Z,57.27
2024-05-09T23:40:48.970Z,57.44
2024-05-09T23:45:47.875Z,57.47
2024-05-09T23:50:47.136Z,58.26
2024-05-09T23:55:46.542Z,58.53
